Time;durP1;ratioP1;P1;durP2;ratioP2;P2;SDS_P1;SDS_P2;PMS_P1;PMS_P2;Temp;Humidity;BMP_temperature;BMP_pressure;BME280_temperature;BME280_humidity;BME280_pressure;Samples;Min_cycle;Max_cycle;Signal;HPM_P1;HPM_P2
2021/12/04 00:00:41;;;;;;;9.67;5.47;;;;;;;;;;4929642;29;20282;-80
2021/12/04 00:03:10;;;;;;;12.50;6.40;;;;;;;;;;4929532;29;20221;-80
2021/12/04 00:05:39;;;;;;;11.63;6.23;;;;;;;;;;4926129;29;20199;-81
2021/12/04 00:08:07;;;;;;;14.10;5.80;;;;;;;;;;4931219;29;20302;-80
2021/12/04 00:10:34;;;;;;;11.90;6.50;;;;;;;;;;4931960;29;20314;-80
2021/12/04 00:13:01;;;;;;;10.97;5.93;;;;;;;;;;4932809;29;20632;-82
2021/12/04 00:15:29;;;;;;;13.37;6.27;;;;;;;;;;4931398;29;20211;-80
2021/12/04 00:17:57;;;;;;;13.43;6.50;;;;;;;;;;4939541;29;20591;-81
2021/12/04 00:20:30;;;;;;;11.23;5.93;;;;;;;;;;4930488;29;20265;-81
2021/12/04 00:22:59;;;;;;;13.60;6.80;;;;;;;;;;4929582;29;20292;-81
2021/12/04 00:25:26;;;;;;;12.43;6.87;;;;;;;;;;4919120;29;20211;-81
2021/12/04 00:27:53;;;;;;;14.60;7.47;;;;;;;;;;4921242;29;20242;-81
2021/12/04 00:30:21;;;;;;;15.07;7.40;;;;;;;;;;4919858;29;20250;-82
2021/12/04 00:32:56;;;;;;;14.13;6.53;;;;;;;;;;4918782;29;20207;-81
2021/12/04 00:35:34;;;;;;;10.90;6.37;;;;;;;;;;4919472;29;20343;-78
2021/12/04 00:43:17;;;;;;;12.80;6.60;;;;;;;;;;4934176;29;20232;-81
2021/12/04 00:49:38;;;;;;;14.33;6.30;;;;;;;;;;4941242;28;21868;-79
2021/12/04 00:52:06;;;;;;;11.77;6.43;;;;;;;;;;4924562;29;20309;-79
2021/12/04 00:54:34;;;;;;;12.53;6.30;;;;;;;;;;4924362;29;20243;-80
2021/12/04 00:57:01;;;;;;;12.67;6.63;;;;;;;;;;4922773;29;20758;-79
2021/12/04 00:59:29;;;;;;;13.13;6.50;;;;;;;;;;4919575;29;20302;-78
2021/12/04 01:01:56;;;;;;;11.07;6.67;;;;;;;;;;4923113;29;20241;-78
2021/12/04 01:04:23;;;;;;;17.67;7.53;;;;;;;;;;4920232;29;20653;-79
2021/12/04 01:06:51;;;;;;;15.00;6.80;;;;;;;;;;4921836;29;20290;-79
2021/12/04 01:09:19;;;;;;;14.03;6.83;;;;;;;;;;4920958;29;20621;-80
2021/12/04 01:11:47;;;;;;;10.77;5.87;;;;;;;;;;4920248;29;20327;-80
2021/12/04 01:14:15;;;;;;;14.73;8.47;;;;;;;;;;4918493;29;20203;-79
2021/12/04 01:16:43;;;;;;;14.27;7.17;;;;;;;;;;4919914;29;20892;-80
2021/12/04 01:19:10;;;;;;;12.47;6.40;;;;;;;;;;4923089;29;20278;-80
2021/12/04 01:21:38;;;;;;;12.77;7.20;;;;;;;;;;4920786;29;20231;-79
2021/12/04 01:24:05;;;;;;;18.57;6.90;;;;;;;;;;4930161;29;20238;-79
2021/12/04 01:26:32;;;;;;;13.90;6.93;;;;;;;;;;4929283;29;20243;-80
2021/12/04 01:29:01;;;;;;;13.17;6.67;;;;;;;;;;4920635;29;20207;-79
2021/12/04 01:31:28;;;;;;;17.57;6.77;;;;;;;;;;4921832;29;20292;-79
2021/12/04 01:33:55;;;;;;;14.50;7.07;;;;;;;;;;4921062;28;20270;-79
2021/12/04 01:36:23;;;;;;;12.87;7.27;;;;;;;;;;4923723;28;20211;-80
2021/12/04 01:38:51;;;;;;;14.27;7.00;;;;;;;;;;4924321;29;20208;-80
2021/12/04 01:41:18;;;;;;;16.33;7.67;;;;;;;;;;4925817;28;20263;-79
2021/12/04 01:43:46;;;;;;;15.80;8.07;;;;;;;;;;4923275;28;20271;-80
2021/12/04 01:46:15;;;;;;;12.70;7.07;;;;;;;;;;4922562;29;20211;-80
2021/12/04 01:48:43;;;;;;;15.00;7.87;;;;;;;;;;4924535;29;20203;-80
2021/12/04 01:51:10;;;;;;;14.00;7.07;;;;;;;;;;4941645;23;20719;-81
2021/12/04 01:53:38;;;;;;;11.87;6.97;;;;;;;;;;4956262;28;20272;-82
2021/12/04 01:56:05;;;;;;;17.13;8.33;;;;;;;;;;4954453;28;20209;-81
2021/12/04 01:58:33;;;;;;;18.80;8.50;;;;;;;;;;4955034;28;20214;-82
2021/12/04 02:01:00;;;;;;;17.47;7.83;;;;;;;;;;4948286;28;20226;-82
2021/12/04 02:03:29;;;;;;;21.50;9.03;;;;;;;;;;4936969;28;20532;-82
2021/12/04 02:05:56;;;;;;;16.03;7.83;;;;;;;;;;4937258;28;20740;-81
2021/12/04 02:08:24;;;;;;;18.53;8.97;;;;;;;;;;4937540;28;20206;-81
2021/12/04 02:10:52;;;;;;;18.03;8.67;;;;;;;;;;4937685;28;20317;-81
2021/12/04 02:13:20;;;;;;;16.37;9.13;;;;;;;;;;4936595;28;20299;-81
2021/12/04 02:15:48;;;;;;;20.53;9.43;;;;;;;;;;4937346;28;20341;-81
2021/12/04 02:18:16;;;;;;;19.17;9.23;;;;;;;;;;4936054;28;20291;-82
2021/12/04 02:20:45;;;;;;;18.63;8.67;;;;;;;;;;4937647;28;20230;-81
2021/12/04 02:23:12;;;;;;;19.23;8.73;;;;;;;;;;4935700;28;20278;-80
2021/12/04 02:25:40;;;;;;;21.00;9.40;;;;;;;;;;4939078;28;20286;-81
2021/12/04 02:28:08;;;;;;;20.23;9.50;;;;;;;;;;4936954;28;20221;-81
2021/12/04 02:30:38;;;;;;;17.90;9.53;;;;;;;;;;4937554;28;20612;-80
2021/12/04 02:33:11;;;;;;;22.03;9.17;;;;;;;;;;4939191;28;20568;-80
2021/12/04 02:35:38;;;;;;;17.17;8.73;;;;;;;;;;4937087;28;20265;-80
2021/12/04 02:38:07;;;;;;;23.13;10.10;;;;;;;;;;4938278;28;20210;-80
2021/12/04 02:40:34;;;;;;;23.53;10.03;;;;;;;;;;4939793;28;20230;-81
2021/12/04 02:43:01;;;;;;;21.30;9.60;;;;;;;;;;4938386;28;22899;-81
2021/12/04 02:45:29;;;;;;;19.67;9.70;;;;;;;;;;4940092;28;20301;-81
2021/12/04 02:47:56;;;;;;;20.03;9.37;;;;;;;;;;4950453;28;20309;-82
2021/12/04 02:50:23;;;;;;;17.73;9.20;;;;;;;;;;4952649;28;20226;-82
2021/12/04 02:52:50;;;;;;;22.50;8.77;;;;;;;;;;4949944;28;20231;-82
2021/12/04 02:55:19;;;;;;;17.23;9.47;;;;;;;;;;4939086;28;21407;-80
2021/12/04 02:57:47;;;;;;;22.00;10.10;;;;;;;;;;4941511;28;20217;-82
2021/12/04 03:00:18;;;;;;;22.77;10.23;;;;;;;;;;4939538;28;20640;-82
2021/12/04 03:02:46;;;;;;;20.70;10.03;;;;;;;;;;4937753;28;20206;-81
2021/12/04 03:05:14;;;;;;;17.63;8.70;;;;;;;;;;4941190;28;20253;-82
2021/12/04 03:07:41;;;;;;;19.13;9.00;;;;;;;;;;4938920;28;20563;-82
2021/12/04 03:10:09;;;;;;;22.43;11.20;;;;;;;;;;4940645;28;20247;-82
2021/12/04 03:12:40;;;;;;;19.00;9.87;;;;;;;;;;4936339;28;20217;-82
2021/12/04 03:15:08;;;;;;;21.63;9.17;;;;;;;;;;4937067;28;20206;-82
2021/12/04 03:17:36;;;;;;;20.87;10.20;;;;;;;;;;4938913;28;20230;-82
2021/12/04 03:20:03;;;;;;;20.77;10.20;;;;;;;;;;4938301;28;20313;-80
2021/12/04 03:22:31;;;;;;;21.97;10.07;;;;;;;;;;4934499;28;20214;-81
2021/12/04 03:24:58;;;;;;;18.93;9.07;;;;;;;;;;4937181;28;20265;-81
2021/12/04 03:27:28;;;;;;;20.03;8.67;;;;;;;;;;4936640;28;20208;-81
2021/12/04 03:29:59;;;;;;;23.83;9.37;;;;;;;;;;4936495;28;20205;-82
2021/12/04 03:40:54;;;;;;;18.47;8.57;;;;;;;;;;4936958;28;20321;-81
2021/12/04 03:43:22;;;;;;;18.00;9.00;;;;;;;;;;4936490;28;20218;-82
2021/12/04 03:45:57;;;;;;;19.87;9.63;;;;;;;;;;4933866;28;20213;-81
2021/12/04 03:48:50;;;;;;;21.50;10.07;;;;;;;;;;4935902;28;20233;-81
2021/12/04 03:51:21;;;;;;;19.10;9.20;;;;;;;;;;4934440;28;20584;-81
2021/12/04 03:53:48;;;;;;;16.07;7.80;;;;;;;;;;4936299;28;20314;-82
2021/12/04 03:56:20;;;;;;;18.00;9.00;;;;;;;;;;4936347;28;20230;-80
2021/12/04 03:58:47;;;;;;;15.67;8.73;;;;;;;;;;4938578;28;20206;-82
2021/12/04 04:01:16;;;;;;;18.40;8.67;;;;;;;;;;4940038;28;20265;-81
2021/12/04 04:03:43;;;;;;;16.87;9.07;;;;;;;;;;4942917;28;20269;-81
2021/12/04 04:06:11;;;;;;;17.20;8.50;;;;;;;;;;4949151;28;20234;-81
2021/12/04 04:08:38;;;;;;;15.37;8.87;;;;;;;;;;4945212;28;20198;-81
2021/12/04 04:11:05;;;;;;;19.50;8.73;;;;;;;;;;4947154;28;20245;-79
2021/12/04 04:13:32;;;;;;;21.33;9.13;;;;;;;;;;4940602;28;20224;-79
2021/12/04 04:16:04;;;;;;;20.80;8.97;;;;;;;;;;4943501;28;20274;-81
2021/12/04 04:18:33;;;;;;;16.40;9.00;;;;;;;;;;4943112;28;20214;-81
2021/12/04 04:21:01;;;;;;;16.90;9.17;;;;;;;;;;4942183;28;20234;-80
2021/12/04 04:23:28;;;;;;;18.77;8.27;;;;;;;;;;4943677;28;20849;-80
2021/12/04 04:25:56;;;;;;;15.33;7.93;;;;;;;;;;4943657;28;20277;-80
2021/12/04 04:28:26;;;;;;;18.77;8.47;;;;;;;;;;4945258;28;20883;-80
2021/12/04 04:30:53;;;;;;;16.77;8.60;;;;;;;;;;4942753;28;20297;-80
2021/12/04 04:33:20;;;;;;;18.17;8.17;;;;;;;;;;4940739;28;20210;-80
2021/12/04 04:36:02;;;;;;;20.90;8.53;;;;;;;;;;4947265;28;20230;-80
2021/12/04 04:38:37;;;;;;;17.93;8.03;;;;;;;;;;4943605;28;20234;-81
2021/12/04 04:57:49;;;;;;;14.10;7.17;;;;;;;;;;4945192;28;20213;-80
2021/12/04 05:00:35;;;;;;;17.20;7.30;;;;;;;;;;4946480;28;20207;-81
2021/12/04 05:11:40;;;;;;;11.13;6.47;;;;;;;;;;4948941;28;20265;-80
2021/12/04 05:14:08;;;;;;;14.83;7.57;;;;;;;;;;4946905;28;20228;-81
2021/12/04 05:16:46;;;;;;;16.47;6.87;;;;;;;;;;4940058;28;20273;-81
2021/12/04 05:19:25;;;;;;;13.50;6.80;;;;;;;;;;4943015;28;20218;-81
2021/12/04 05:21:53;;;;;;;13.23;6.53;;;;;;;;;;4958562;28;20829;-82
2021/12/04 05:24:21;;;;;;;11.10;6.00;;;;;;;;;;4942375;28;20293;-81
2021/12/04 05:26:49;;;;;;;12.90;6.43;;;;;;;;;;4940766;28;20278;-81
2021/12/04 05:29:16;;;;;;;13.80;6.80;;;;;;;;;;4941944;28;21187;-81
2021/12/04 05:31:43;;;;;;;12.30;6.40;;;;;;;;;;4941746;28;20290;-79
2021/12/04 05:34:10;;;;;;;13.37;6.23;;;;;;;;;;4937913;28;20866;-79
2021/12/04 05:36:37;;;;;;;11.70;6.00;;;;;;;;;;4939952;28;20748;-80
2021/12/04 05:39:05;;;;;;;12.13;6.70;;;;;;;;;;4941616;28;20333;-80
2021/12/04 05:41:35;;;;;;;14.17;6.17;;;;;;;;;;4938756;28;20228;-80
2021/12/04 05:44:05;;;;;;;10.03;5.67;;;;;;;;;;4939948;28;20206;-80
2021/12/04 05:46:37;;;;;;;12.23;4.53;;;;;;;;;;4939150;28;20230;-79
2021/12/04 05:49:09;;;;;;;9.50;5.17;;;;;;;;;;4942705;28;20218;-81
2021/12/04 05:51:51;;;;;;;10.73;5.70;;;;;;;;;;4938218;28;20233;-81
2021/12/04 05:57:16;;;;;;;8.57;5.20;;;;;;;;;;4894158;29;20200;-80
2021/12/04 05:59:43;;;;;;;9.50;5.80;;;;;;;;;;4931704;28;20209;-81
2021/12/04 06:02:10;;;;;;;11.47;6.23;;;;;;;;;;4941939;28;20693;-81
2021/12/04 06:04:37;;;;;;;8.77;4.93;;;;;;;;;;4941648;28;20230;-80
2021/12/04 06:07:05;;;;;;;11.63;6.03;;;;;;;;;;4939074;28;20215;-81
2021/12/04 06:09:32;;;;;;;11.57;6.10;;;;;;;;;;4942114;28;20203;-80
2021/12/04 06:12:04;;;;;;;9.30;5.13;;;;;;;;;;4936878;28;20246;-81
2021/12/04 06:14:33;;;;;;;11.73;5.47;;;;;;;;;;4940990;28;20688;-80
2021/12/04 06:17:00;;;;;;;8.13;4.70;;;;;;;;;;4939500;28;20206;-80
2021/12/04 06:22:37;;;;;;;11.07;5.27;;;;;;;;;;4940663;28;20234;-81
2021/12/04 06:24:59;;;;;;;11.50;5.40;;;;;;;;;;4940786;28;20214;-81
2021/12/04 06:27:26;;;;;;;10.43;5.63;;;;;;;;;;4942004;28;21492;-79
2021/12/04 06:29:55;;;;;;;10.30;5.10;;;;;;;;;;4939738;28;20638;-81
2021/12/04 06:32:22;;;;;;;9.30;5.30;;;;;;;;;;4941723;28;20324;-81
2021/12/04 06:34:49;;;;;;;9.77;5.73;;;;;;;;;;4938842;28;20309;-81
2021/12/04 06:37:17;;;;;;;8.50;4.77;;;;;;;;;;4939943;28;20294;-81
2021/12/04 06:39:44;;;;;;;9.73;5.17;;;;;;;;;;4940774;28;20211;-81
2021/12/04 06:42:12;;;;;;;10.27;5.77;;;;;;;;;;4942182;28;20294;-81
2021/12/04 06:44:40;;;;;;;11.53;6.27;;;;;;;;;;4940540;28;21933;-80
2021/12/04 06:47:08;;;;;;;13.03;6.17;;;;;;;;;;4943315;28;20206;-81
2021/12/04 06:49:38;;;;;;;13.03;6.10;;;;;;;;;;4949339;28;20268;-80
2021/12/04 06:52:10;;;;;;;9.43;5.40;;;;;;;;;;4949425;28;20687;-80
2021/12/04 06:54:40;;;;;;;12.27;6.70;;;;;;;;;;4937612;28;20958;-81
2021/12/04 06:57:10;;;;;;;13.97;6.70;;;;;;;;;;4938322;28;20312;-81
2021/12/04 06:59:39;;;;;;;12.57;6.63;;;;;;;;;;4936202;28;20463;-82
2021/12/04 07:02:06;;;;;;;11.97;6.47;;;;;;;;;;4941029;28;20709;-81
2021/12/04 07:04:37;;;;;;;13.80;6.73;;;;;;;;;;4938434;28;20717;-81
2021/12/04 07:07:04;;;;;;;11.87;6.13;;;;;;;;;;4940169;28;20203;-79
2021/12/04 07:09:32;;;;;;;11.70;6.27;;;;;;;;;;4938677;28;20332;-80
2021/12/04 07:11:59;;;;;;;11.77;5.53;;;;;;;;;;4940223;28;20682;-80
2021/12/04 07:14:27;;;;;;;12.57;6.50;;;;;;;;;;4937726;28;20203;-79
2021/12/04 07:16:54;;;;;;;14.03;6.93;;;;;;;;;;4942572;28;21036;-80
2021/12/04 07:19:21;;;;;;;14.77;6.97;;;;;;;;;;4940888;28;20705;-80
2021/12/04 07:21:50;;;;;;;14.13;6.30;;;;;;;;;;4937517;28;20226;-80
2021/12/04 07:24:17;;;;;;;15.73;6.90;;;;;;;;;;4940188;28;21013;-79
2021/12/04 07:26:44;;;;;;;18.00;7.40;;;;;;;;;;4939305;28;20757;-80
2021/12/04 07:29:12;;;;;;;16.07;8.47;;;;;;;;;;4942701;28;20194;-80
2021/12/04 07:31:39;;;;;;;17.40;7.97;;;;;;;;;;4941386;28;20784;-78
2021/12/04 07:34:07;;;;;;;17.37;7.53;;;;;;;;;;4943070;28;20206;-79
2021/12/04 07:36:37;;;;;;;15.33;8.07;;;;;;;;;;4951694;28;20262;-79
2021/12/04 07:39:06;;;;;;;16.07;7.13;;;;;;;;;;4943506;28;20205;-80
2021/12/04 07:41:38;;;;;;;16.43;7.27;;;;;;;;;;4936352;28;20238;-80
2021/12/04 07:44:08;;;;;;;14.63;8.20;;;;;;;;;;4936537;28;20696;-80
2021/12/04 07:46:35;;;;;;;14.50;6.73;;;;;;;;;;4936290;28;20306;-79
2021/12/04 07:49:02;;;;;;;17.13;8.23;;;;;;;;;;4938702;28;20210;-80
2021/12/04 07:51:29;;;;;;;15.10;8.00;;;;;;;;;;4938620;28;20238;-80
2021/12/04 07:53:57;;;;;;;14.90;7.37;;;;;;;;;;4938410;28;20286;-80
2021/12/04 07:56:25;;;;;;;17.27;8.30;;;;;;;;;;4936571;28;20640;-81
2021/12/04 07:58:52;;;;;;;19.07;9.07;;;;;;;;;;4934765;28;20209;-80
2021/12/04 08:01:20;;;;;;;16.43;8.43;;;;;;;;;;4938640;28;20753;-80
2021/12/04 08:03:47;;;;;;;18.93;8.37;;;;;;;;;;4936884;28;20206;-81
2021/12/04 08:06:14;;;;;;;17.07;8.80;;;;;;;;;;4935558;28;20210;-81
2021/12/04 08:08:41;;;;;;;15.00;7.73;;;;;;;;;;4935077;28;20214;-81
2021/12/04 08:11:09;;;;;;;13.73;7.40;;;;;;;;;;4931738;28;20285;-81
2021/12/04 08:13:37;;;;;;;12.03;7.00;;;;;;;;;;4936995;28;20281;-81
2021/12/04 08:16:05;;;;;;;13.63;7.50;;;;;;;;;;4934582;28;20230;-81
2021/12/04 08:18:32;;;;;;;12.10;6.77;;;;;;;;;;4935824;28;20274;-81
2021/12/04 08:20:59;;;;;;;14.67;7.33;;;;;;;;;;4936278;28;20653;-82
2021/12/04 08:23:26;;;;;;;11.97;6.63;;;;;;;;;;4937431;28;20242;-80
2021/12/04 08:25:56;;;;;;;13.10;7.10;;;;;;;;;;4936909;28;20807;-80
2021/12/04 08:28:23;;;;;;;12.83;6.60;;;;;;;;;;4933713;28;20269;-79
2021/12/04 08:30:52;;;;;;;19.57;8.37;;;;;;;;;;4933776;28;20226;-80
2021/12/04 08:33:19;;;;;;;13.27;7.00;;;;;;;;;;4932838;28;20220;-80
2021/12/04 08:35:46;;;;;;;16.63;8.33;;;;;;;;;;4937730;28;20292;-80
2021/12/04 08:38:17;;;;;;;14.47;7.30;;;;;;;;;;4939553;28;20238;-80
2021/12/04 08:40:44;;;;;;;10.70;5.57;;;;;;;;;;4936505;28;20599;-81
2021/12/04 08:43:12;;;;;;;12.50;7.10;;;;;;;;;;4935135;28;20290;-80
2021/12/04 08:45:40;;;;;;;12.60;6.90;;;;;;;;;;4939123;28;20209;-80
2021/12/04 08:48:09;;;;;;;11.67;6.70;;;;;;;;;;4941395;28;20301;-80
2021/12/04 08:50:37;;;;;;;13.63;7.27;;;;;;;;;;4940736;28;20245;-81
2021/12/04 08:53:06;;;;;;;12.47;6.90;;;;;;;;;;4939720;28;20294;-81
2021/12/04 08:55:35;;;;;;;12.33;6.20;;;;;;;;;;4939714;28;20474;-81
2021/12/04 08:58:03;;;;;;;11.07;6.30;;;;;;;;;;4938305;28;20257;-80
2021/12/04 09:00:33;;;;;;;9.53;5.63;;;;;;;;;;4939064;28;20226;-80
2021/12/04 09:03:01;;;;;;;10.77;5.93;;;;;;;;;;4938829;28;20521;-80
2021/12/04 09:05:30;;;;;;;11.63;6.73;;;;;;;;;;4941619;28;20245;-81
2021/12/04 09:07:58;;;;;;;11.63;6.27;;;;;;;;;;4939544;28;20214;-81
2021/12/04 09:10:26;;;;;;;10.87;6.27;;;;;;;;;;4938910;28;20297;-80
2021/12/04 09:12:54;;;;;;;11.40;6.20;;;;;;;;;;4943559;28;20264;-80
2021/12/04 09:15:24;;;;;;;13.47;6.50;;;;;;;;;;4940232;28;20839;-80
2021/12/04 09:17:51;;;;;;;10.23;6.27;;;;;;;;;;4940315;28;21969;-80
2021/12/04 09:20:18;;;;;;;11.90;6.33;;;;;;;;;;4939242;28;20298;-79
2021/12/04 09:22:48;;;;;;;10.50;6.30;;;;;;;;;;4940073;28;20292;-81
2021/12/04 09:25:17;;;;;;;9.10;5.67;;;;;;;;;;4946943;28;20725;-81
2021/12/04 09:28:00;;;;;;;8.53;5.37;;;;;;;;;;4947104;28;20203;-81
2021/12/04 10:00:56;;;;;;;10.47;5.90;;;;;;;;;;4951738;28;20236;-79
2021/12/04 10:06:22;;;;;;;9.67;5.50;;;;;;;;;;4943478;28;20206;-80
2021/12/04 10:15:20;;;;;;;14.83;7.60;;;;;;;;;;4939994;28;20210;-80
2021/12/04 10:18:07;;;;;;;9.80;5.57;;;;;;;;;;4938662;28;20300;-79
2021/12/04 10:20:42;;;;;;;10.97;6.23;;;;;;;;;;4932709;28;20230;-81
2021/12/04 10:23:29;;;;;;;10.87;6.00;;;;;;;;;;4935379;28;20233;-79
2021/12/04 10:34:14;;;;;;;8.40;4.87;;;;;;;;;;4946524;28;20230;-80
2021/12/04 10:36:42;;;;;;;9.43;5.47;;;;;;;;;;4945286;28;20238;-81
2021/12/04 10:39:10;;;;;;;10.10;5.93;;;;;;;;;;4943770;28;20359;-81
2021/12/04 10:41:40;;;;;;;12.73;6.73;;;;;;;;;;4937577;28;20248;-82
2021/12/04 10:44:14;;;;;;;12.63;6.70;;;;;;;;;;4935656;28;21141;-81
2021/12/04 10:46:52;;;;;;;10.30;6.47;;;;;;;;;;4941945;28;21330;-82
2021/12/04 10:49:31;;;;;;;8.40;4.27;;;;;;;;;;4951354;29;20691;-80
2021/12/04 10:52:03;;;;;;;6.37;3.93;;;;;;;;;;4948054;28;20806;-81
2021/12/04 10:54:38;;;;;;;11.17;4.07;;;;;;;;;;4951979;28;20289;-80
2021/12/04 10:57:31;;;;;;;8.57;4.00;;;;;;;;;;4947742;28;20206;-82
2021/12/04 11:00:07;;;;;;;7.07;3.87;;;;;;;;;;4948222;28;20276;-81
2021/12/04 11:02:40;;;;;;;9.80;4.90;;;;;;;;;;4945394;28;20280;-83
2021/12/04 11:05:39;;;;;;;9.57;4.83;;;;;;;;;;4947665;28;20237;-83
2021/12/04 11:19:42;;;;;;;8.90;4.93;;;;;;;;;;4945959;28;20744;-81
2021/12/04 11:22:21;;;;;;;15.17;5.70;;;;;;;;;;4952921;28;20226;-82
2021/12/04 11:25:12;;;;;;;9.17;4.77;;;;;;;;;;4953605;29;20205;-80
2021/12/04 11:38:48;;;;;;;12.20;6.27;;;;;;;;;;4940030;28;22190;-81
2021/12/04 11:41:26;;;;;;;13.00;5.93;;;;;;;;;;4942592;28;20222;-80
2021/12/04 11:43:58;;;;;;;11.80;6.10;;;;;;;;;;4944901;28;20230;-81
2021/12/04 11:46:30;;;;;;;10.67;5.57;;;;;;;;;;4933924;28;20211;-80
2021/12/04 11:49:08;;;;;;;12.33;6.07;;;;;;;;;;4938744;28;20207;-80
2021/12/04 11:51:35;;;;;;;11.47;5.80;;;;;;;;;;4941831;28;20237;-80
2021/12/04 11:54:11;;;;;;;10.00;5.07;;;;;;;;;;4941366;28;20246;-80
2021/12/04 11:56:39;;;;;;;11.57;5.53;;;;;;;;;;4948555;28;20214;-81
2021/12/04 11:59:06;;;;;;;13.27;6.40;;;;;;;;;;4953137;28;20536;-80
2021/12/04 12:01:35;;;;;;;10.77;5.23;;;;;;;;;;4953543;28;20305;-80
2021/12/04 12:04:05;;;;;;;11.30;5.67;;;;;;;;;;4954100;28;20230;-79
2021/12/04 12:06:33;;;;;;;10.43;5.80;;;;;;;;;;4958055;28;20214;-80
2021/12/04 12:09:02;;;;;;;10.40;4.93;;;;;;;;;;4948161;28;20282;-81
2021/12/04 12:11:30;;;;;;;9.97;4.80;;;;;;;;;;4944982;28;21626;-80
2021/12/04 12:13:59;;;;;;;10.67;5.83;;;;;;;;;;4952909;28;20198;-81
2021/12/04 12:16:29;;;;;;;9.63;5.10;;;;;;;;;;4953343;28;20290;-81
2021/12/04 12:18:59;;;;;;;10.73;5.50;;;;;;;;;;4951833;28;20285;-81
2021/12/04 12:21:32;;;;;;;13.37;5.53;;;;;;;;;;4955758;28;20250;-81
2021/12/04 12:27:16;;;;;;;14.83;6.23;;;;;;;;;;4903674;29;20275;-82
2021/12/04 12:38:15;;;;;;;10.20;5.43;;;;;;;;;;4937336;28;20633;-81
2021/12/04 12:40:43;;;;;;;11.20;5.30;;;;;;;;;;4942785;28;20234;-81
2021/12/04 12:43:15;;;;;;;11.30;6.33;;;;;;;;;;4943386;28;20316;-82
2021/12/04 12:45:53;;;;;;;11.90;5.40;;;;;;;;;;4942019;28;20812;-81
2021/12/04 12:48:20;;;;;;;10.37;5.37;;;;;;;;;;4942328;28;20216;-83
2021/12/04 12:50:49;;;;;;;9.53;4.47;;;;;;;;;;4945738;28;20317;-81
2021/12/04 12:53:19;;;;;;;10.57;4.90;;;;;;;;;;4936018;28;20202;-81
2021/12/04 12:55:47;;;;;;;9.57;4.57;;;;;;;;;;4935984;28;20206;-80
2021/12/04 12:58:22;;;;;;;11.20;5.40;;;;;;;;;;4928467;28;20757;-80
2021/12/04 13:12:07;;;;;;;9.90;5.10;;;;;;;;;;4930010;28;20233;-82
2021/12/04 13:14:38;;;;;;;7.77;4.43;;;;;;;;;;4936414;28;20274;-81
2021/12/04 13:17:09;;;;;;;7.83;4.37;;;;;;;;;;4939752;28;20226;-81
2021/12/04 13:19:42;;;;;;;11.47;5.00;;;;;;;;;;4931616;28;20756;-82
2021/12/04 13:22:19;;;;;;;8.03;4.40;;;;;;;;;;4943074;28;20709;-81
2021/12/04 13:24:49;;;;;;;11.33;5.40;;;;;;;;;;4935890;28;20288;-80
2021/12/04 13:29:51;;;;;;;11.03;5.20;;;;;;;;;;4947620;28;20206;-80
2021/12/04 13:32:20;;;;;;;9.53;4.53;;;;;;;;;;4947930;28;20806;-81
2021/12/04 13:34:50;;;;;;;9.97;4.93;;;;;;;;;;4947142;28;20295;-81
2021/12/04 13:37:17;;;;;;;9.23;4.93;;;;;;;;;;4950032;28;20339;-81
2021/12/04 13:39:46;;;;;;;7.57;4.23;;;;;;;;;;4953048;28;20696;-80
2021/12/04 13:42:20;;;;;;;11.07;4.90;;;;;;;;;;4950446;28;20280;-83
2021/12/04 13:44:48;;;;;;;8.93;4.73;;;;;;;;;;4950147;28;21035;-80
2021/12/04 13:47:15;;;;;;;9.63;4.40;;;;;;;;;;4945073;28;20206;-82
2021/12/04 13:49:53;;;;;;;8.40;4.43;;;;;;;;;;4942219;28;20214;-82
2021/12/04 13:52:21;;;;;;;10.10;4.03;;;;;;;;;;4932380;23;20245;-81
2021/12/04 13:54:51;;;;;;;7.57;3.90;;;;;;;;;;4950857;28;20581;-81
2021/12/04 13:57:20;;;;;;;8.67;4.27;;;;;;;;;;4949273;28;20202;-81
2021/12/04 13:59:48;;;;;;;8.63;4.43;;;;;;;;;;4954891;28;20211;-81
2021/12/04 14:02:22;;;;;;;8.30;3.50;;;;;;;;;;4956315;28;20261;-82
2021/12/04 14:05:00;;;;;;;6.10;3.27;;;;;;;;;;4957344;28;20231;-81
2021/12/04 14:07:31;;;;;;;8.53;3.83;;;;;;;;;;4954153;29;20283;-81
2021/12/04 14:09:58;;;;;;;10.80;3.67;;;;;;;;;;4953583;28;20216;-81
2021/12/04 14:12:31;;;;;;;7.07;3.90;;;;;;;;;;4948179;28;20230;-82
2021/12/04 14:14:59;;;;;;;6.23;3.70;;;;;;;;;;4951424;28;20203;-81
2021/12/04 14:17:26;;;;;;;9.63;4.70;;;;;;;;;;4959595;28;20435;-82
2021/12/04 14:19:53;;;;;;;6.90;4.00;;;;;;;;;;4965840;28;20229;-81
2021/12/04 14:22:21;;;;;;;5.70;3.63;;;;;;;;;;4959208;28;20672;-81
2021/12/04 14:24:50;;;;;;;5.87;3.27;;;;;;;;;;4956770;28;20309;-81
2021/12/04 14:27:19;;;;;;;9.87;5.03;;;;;;;;;;4949260;28;20231;-80
2021/12/04 14:29:49;;;;;;;12.27;4.97;;;;;;;;;;4944888;28;20641;-80
2021/12/04 14:32:22;;;;;;;14.93;4.33;;;;;;;;;;4945422;29;20313;-81
2021/12/04 14:34:49;;;;;;;9.10;4.20;;;;;;;;;;4946806;28;20771;-81
2021/12/04 14:37:17;;;;;;;16.73;7.17;;;;;;;;;;4943916;28;20201;-81
2021/12/04 14:39:46;;;;;;;12.13;6.07;;;;;;;;;;4945363;28;20230;-81
2021/12/04 14:42:15;;;;;;;9.67;4.47;;;;;;;;;;4949482;29;20321;-81
2021/12/04 14:44:42;;;;;;;6.67;3.93;;;;;;;;;;4946494;29;20321;-81
2021/12/04 14:47:11;;;;;;;10.40;3.80;;;;;;;;;;4951261;29;20234;-81
2021/12/04 14:49:41;;;;;;;11.27;5.10;;;;;;;;;;4949114;28;20332;-80
2021/12/04 14:52:08;;;;;;;11.50;4.37;;;;;;;;;;4945310;28;20242;-81
2021/12/04 14:54:38;;;;;;;13.60;4.80;;;;;;;;;;4949910;28;20219;-81
2021/12/04 14:57:14;;;;;;;5.20;3.53;;;;;;;;;;4950087;28;20222;-81
2021/12/04 14:59:41;;;;;;;5.40;3.17;;;;;;;;;;4938196;28;20206;-82
2021/12/04 15:02:15;;;;;;;10.00;3.93;;;;;;;;;;4942326;28;20269;-81
2021/12/04 15:04:43;;;;;;;10.13;3.87;;;;;;;;;;4948696;28;20258;-81
2021/12/04 15:07:18;;;;;;;9.67;4.27;;;;;;;;;;4945807;28;20215;-81
2021/12/04 15:09:45;;;;;;;7.20;3.70;;;;;;;;;;4939516;28;20245;-81
2021/12/04 15:12:13;;;;;;;5.27;3.03;;;;;;;;;;4943456;29;20862;-81
2021/12/04 15:14:40;;;;;;;6.37;3.30;;;;;;;;;;4950456;28;20234;-81
2021/12/04 15:17:14;;;;;;;6.73;3.07;;;;;;;;;;4945408;29;20203;-82
2021/12/04 15:19:45;;;;;;;7.50;3.10;;;;;;;;;;4947177;28;20202;-81
2021/12/04 15:22:16;;;;;;;7.70;3.30;;;;;;;;;;4948182;28;20299;-81
2021/12/04 15:24:45;;;;;;;6.10;3.30;;;;;;;;;;4948808;28;20218;-81
2021/12/04 15:27:15;;;;;;;10.67;3.60;;;;;;;;;;4940121;28;20226;-81
2021/12/04 15:29:42;;;;;;;7.43;3.20;;;;;;;;;;4941833;28;20210;-81
2021/12/04 15:32:12;;;;;;;4.77;2.70;;;;;;;;;;4940305;28;20242;-81
2021/12/04 15:34:41;;;;;;;5.90;2.87;;;;;;;;;;4937194;28;20209;-81
2021/12/04 15:37:10;;;;;;;7.90;3.80;;;;;;;;;;4948210;28;20211;-81
2021/12/04 15:39:38;;;;;;;8.33;4.00;;;;;;;;;;4946565;28;20219;-81
2021/12/04 15:42:18;;;;;;;11.67;4.57;;;;;;;;;;4946722;28;20640;-81
2021/12/04 15:44:56;;;;;;;9.40;5.00;;;;;;;;;;4944288;28;20654;-81
2021/12/04 15:47:29;;;;;;;11.37;4.90;;;;;;;;;;4945023;29;20818;-82
2021/12/04 15:55:36;;;;;;;8.80;3.87;;;;;;;;;;4941771;29;20210;-81
2021/12/04 15:58:06;;;;;;;7.43;4.03;;;;;;;;;;4944285;29;20297;-82
2021/12/04 16:00:34;;;;;;;9.23;4.30;;;;;;;;;;4946626;28;20280;-81
2021/12/04 16:03:04;;;;;;;10.97;5.07;;;;;;;;;;4941748;28;20325;-81
2021/12/04 16:05:33;;;;;;;15.90;5.80;;;;;;;;;;4948498;28;20237;-82
2021/12/04 16:08:07;;;;;;;16.30;7.17;;;;;;;;;;4943218;28;20221;-81
2021/12/04 16:10:36;;;;;;;16.20;9.00;;;;;;;;;;4944016;28;20260;-81
2021/12/04 16:13:03;;;;;;;14.13;7.93;;;;;;;;;;4944586;28;20239;-81
2021/12/04 16:15:30;;;;;;;23.90;8.50;;;;;;;;;;4946162;28;20676;-81
2021/12/04 16:17:58;;;;;;;15.10;6.40;;;;;;;;;;4944918;28;20285;-81
2021/12/04 16:20:28;;;;;;;9.07;4.07;;;;;;;;;;4943975;28;20305;-81
2021/12/04 16:22:58;;;;;;;8.93;4.53;;;;;;;;;;4940545;28;20297;-81
2021/12/04 16:25:31;;;;;;;7.33;4.27;;;;;;;;;;4947867;28;20612;-81
2021/12/04 16:28:04;;;;;;;8.43;4.40;;;;;;;;;;4938872;28;20301;-81
2021/12/04 16:30:39;;;;;;;8.50;3.63;;;;;;;;;;4942285;29;20234;-81
2021/12/04 16:33:27;;;;;;;14.47;5.53;;;;;;;;;;4945057;28;20207;-81
2021/12/04 16:35:58;;;;;;;39.40;10.27;;;;;;;;;;4938939;29;20703;-81
2021/12/04 16:38:27;;;;;;;13.63;4.80;;;;;;;;;;4940201;28;20277;-81
2021/12/04 16:40:57;;;;;;;9.57;4.70;;;;;;;;;;4943692;28;20258;-81
2021/12/04 16:43:31;;;;;;;63.77;16.93;;;;;;;;;;4943031;28;20203;-82
2021/12/04 16:45:59;;;;;;;34.37;10.87;;;;;;;;;;4958852;28;20221;-81
2021/12/04 16:48:32;;;;;;;17.93;7.97;;;;;;;;;;4952153;28;20214;-81
2021/12/04 16:56:47;;;;;;;20.37;8.97;;;;;;;;;;4921366;28;20260;-78
2021/12/04 16:59:15;;;;;;;38.30;17.83;;;;;;;;;;4934632;28;20210;-78
2021/12/04 17:01:44;;;;;;;44.83;18.10;;;;;;;;;;4941148;28;20309;-78
2021/12/04 17:04:12;;;;;;;46.03;17.83;;;;;;;;;;4940227;28;20320;-78
2021/12/04 17:06:40;;;;;;;15.73;7.97;;;;;;;;;;4948997;28;20661;-77
2021/12/04 17:09:08;;;;;;;10.37;5.07;;;;;;;;;;4935421;28;20720;-77
2021/12/04 17:11:37;;;;;;;11.30;6.37;;;;;;;;;;4938132;28;20328;-77
2021/12/04 17:14:04;;;;;;;13.33;6.47;;;;;;;;;;4930767;28;20202;-77
2021/12/04 17:16:31;;;;;;;12.50;5.80;;;;;;;;;;4939960;28;20301;-78
2021/12/04 17:19:04;;;;;;;13.43;5.10;;;;;;;;;;4936908;28;20241;-77
2021/12/04 17:21:31;;;;;;;11.00;5.77;;;;;;;;;;4938933;28;20669;-77
2021/12/04 17:24:00;;;;;;;8.77;5.17;;;;;;;;;;4942577;28;20309;-78